sensor_id;sensor_type;location;lat;lon;timestamp;pressure;altitude;pressure_sealevel;temperature;humidity
60974;BME280;46846;51.528;5.076;2023-05-03T00:01:11;102352.81;;;11.54;57.57
60974;BME280;46846;51.528;5.076;2023-05-03T00:03:36;102359.06;;;11.52;57.67
60974;BME280;46846;51.528;5.076;2023-05-03T00:06:11;102354.66;;;11.49;57.80
60974;BME280;46846;51.528;5.076;2023-05-03T00:08:37;102357.31;;;11.47;57.71
60974;BME280;46846;51.528;5.076;2023-05-03T00:11:03;102356.47;;;11.44;57.92
60974;BME280;46846;51.528;5.076;2023-05-03T00:13:28;102360.97;;;11.42;57.92
60974;BME280;46846;51.528;5.076;2023-05-03T00:15:53;102357.44;;;11.40;57.89
60974;BME280;46846;51.528;5.076;2023-05-03T00:18:19;102361.03;;;11.35;57.60
60974;BME280;46846;51.528;5.076;2023-05-03T00:20:44;102365.53;;;11.32;58.06
60974;BME280;46846;51.528;5.076;2023-05-03T00:23:09;102362.00;;;11.30;57.65
60974;BME280;46846;51.528;5.076;2023-05-03T00:25:35;102356.75;;;11.27;57.92
60974;BME280;46846;51.528;5.076;2023-05-03T00:28:00;102364.75;;;11.25;58.00
60974;BME280;46846;51.528;5.076;2023-05-03T00:30:25;102371.88;;;11.21;58.10
60974;BME280;46846;51.528;5.076;2023-05-03T00:32:51;102362.16;;;11.19;57.98
60974;BME280;46846;51.528;5.076;2023-05-03T00:35:16;102358.63;;;11.15;57.77
60974;BME280;46846;51.528;5.076;2023-05-03T00:37:41;102358.66;;;11.14;57.96
60974;BME280;46846;51.528;5.076;2023-05-03T00:40:07;102359.59;;;11.10;58.09
60974;BME280;46846;51.528;5.076;2023-05-03T00:42:34;102355.19;;;11.07;57.95
60974;BME280;46846;51.528;5.076;2023-05-03T00:45:00;102357.00;;;11.03;58.04
60974;BME280;46846;51.528;5.076;2023-05-03T00:47:28;102356.16;;;11.01;58.01
60974;BME280;46846;51.528;5.076;2023-05-03T00:49:54;102349.09;;;10.97;57.93
60974;BME280;46846;51.528;5.076;2023-05-03T00:52:19;102351.75;;;10.96;58.15
60974;BME280;46846;51.528;5.076;2023-05-03T00:54:45;102341.16;;;10.94;58.38
60974;BME280;46846;51.528;5.076;2023-05-03T00:57:10;102344.72;;;10.91;58.06
60974;BME280;46846;51.528;5.076;2023-05-03T00:59:35;102335.88;;;10.89;58.17
60974;BME280;46846;51.528;5.076;2023-05-03T01:02:01;102341.22;;;10.86;58.11
60974;BME280;46846;51.528;5.076;2023-05-03T01:04:27;102347.44;;;10.85;57.93
60974;BME280;46846;51.528;5.076;2023-05-03T01:06:55;102345.69;;;10.81;58.33
60974;BME280;46846;51.528;5.076;2023-05-03T01:09:29;102344.00;;;10.78;58.21
60974;BME280;46846;51.528;5.076;2023-05-03T01:17:28;102344.97;;;10.70;58.16
60974;BME280;46846;51.528;5.076;2023-05-03T01:20:05;102349.44;;;10.66;58.14
60974;BME280;46846;51.528;5.076;2023-05-03T01:25:07;102352.16;;;10.61;58.10
60974;BME280;46846;51.528;5.076;2023-05-03T01:27:33;102362.81;;;10.58;58.20
60974;BME280;46846;51.528;5.076;2023-05-03T01:29:59;102364.59;;;10.56;58.46
60974;BME280;46846;51.528;5.076;2023-05-03T01:32:25;102363.75;;;10.52;58.29
60974;BME280;46846;51.528;5.076;2023-05-03T01:35:06;102362.03;;;10.48;58.14
60974;BME280;46846;51.528;5.076;2023-05-03T01:37:32;102362.91;;;10.47;58.26
60974;BME280;46846;51.528;5.076;2023-05-03T01:39:58;102357.63;;;10.44;58.39
60974;BME280;46846;51.528;5.076;2023-05-03T01:42:25;102354.97;;;10.41;58.51
60974;BME280;46846;51.528;5.076;2023-05-03T01:44:51;102355.88;;;10.38;58.15
60974;BME280;46846;51.528;5.076;2023-05-03T01:47:17;102357.69;;;10.35;58.14
60974;BME280;46846;51.528;5.076;2023-05-03T01:49:42;102361.25;;;10.32;58.27
60974;BME280;46846;51.528;5.076;2023-05-03T01:52:08;102355.94;;;10.29;58.38
60974;BME280;46846;51.528;5.076;2023-05-03T01:54:33;102354.22;;;10.26;58.35
60974;BME280;46846;51.528;5.076;2023-05-03T01:56:58;102355.97;;;10.24;58.26
60974;BME280;46846;51.528;5.076;2023-05-03T01:59:24;102353.38;;;10.21;58.21
60974;BME280;46846;51.528;5.076;2023-05-03T02:01:49;102362.25;;;10.20;58.29
60974;BME280;46846;51.528;5.076;2023-05-03T02:04:14;102356.94;;;10.17;58.23
60974;BME280;46846;51.528;5.076;2023-05-03T02:06:39;102354.31;;;10.16;58.18
60974;BME280;46846;51.528;5.076;2023-05-03T02:09:05;102355.22;;;10.13;58.53
60974;BME280;46846;51.528;5.076;2023-05-03T02:11:30;102346.38;;;10.11;58.41
60974;BME280;46846;51.528;5.076;2023-05-03T02:13:55;102347.28;;;10.07;58.41
60974;BME280;46846;51.528;5.076;2023-05-03T02:16:20;102341.09;;;10.05;58.56
60974;BME280;46846;51.528;5.076;2023-05-03T02:18:46;102324.25;;;10.03;58.59
60974;BME280;46846;51.528;5.076;2023-05-03T02:21:11;102334.03;;;10.01;58.26
60974;BME280;46846;51.528;5.076;2023-05-03T02:23:37;102320.72;;;9.99;58.40
60974;BME280;46846;51.528;5.076;2023-05-03T02:26:02;102317.22;;;9.97;58.17
60974;BME280;46846;51.528;5.076;2023-05-03T02:28:27;102307.50;;;9.93;58.49
60974;BME280;46846;51.528;5.076;2023-05-03T02:30:53;102305.75;;;9.92;58.54
60974;BME280;46846;51.528;5.076;2023-05-03T02:33:18;102307.50;;;9.90;58.40
60974;BME280;46846;51.528;5.076;2023-05-03T02:35:43;102298.69;;;9.88;58.34
60974;BME280;46846;51.528;5.076;2023-05-03T02:38:08;102294.25;;;9.87;58.26
60974;BME280;46846;51.528;5.076;2023-05-03T02:40:34;102296.91;;;9.88;58.06
60974;BME280;46846;51.528;5.076;2023-05-03T02:42:59;102296.03;;;9.86;57.80
60974;BME280;46846;51.528;5.076;2023-05-03T02:45:24;102294.25;;;9.83;58.02
60974;BME280;46846;51.528;5.076;2023-05-03T02:47:50;102300.50;;;9.78;58.14
60974;BME280;46846;51.528;5.076;2023-05-03T02:50:15;102316.47;;;9.76;58.75
60974;BME280;46846;51.528;5.076;2023-05-03T02:52:40;102311.19;;;9.71;58.41
60974;BME280;46846;51.528;5.076;2023-05-03T02:55:06;102316.53;;;9.67;58.54
60974;BME280;46846;51.528;5.076;2023-05-03T02:57:31;102319.22;;;9.64;58.55
60974;BME280;46846;51.528;5.076;2023-05-03T02:59:56;102310.38;;;9.65;58.32
60974;BME280;46846;51.528;5.076;2023-05-03T03:02:22;102313.03;;;9.63;58.41
60974;BME280;46846;51.528;5.076;2023-05-03T03:04:47;102318.38;;;9.60;58.41
60974;BME280;46846;51.528;5.076;2023-05-03T03:07:12;102325.44;;;9.58;58.72
60974;BME280;46846;51.528;5.076;2023-05-03T03:09:37;102320.13;;;9.58;58.58
60974;BME280;46846;51.528;5.076;2023-05-03T03:12:03;102314.88;;;9.50;58.49
60974;BME280;46846;51.528;5.076;2023-05-03T03:14:28;102320.19;;;9.49;58.74
60974;BME280;46846;51.528;5.076;2023-05-03T03:16:54;102322.88;;;9.44;58.78
60974;BME280;46846;51.528;5.076;2023-05-03T03:19:20;102320.22;;;9.46;56.88
60974;BME280;46846;51.528;5.076;2023-05-03T03:21:45;102308.72;;;9.42;58.49
60974;BME280;46846;51.528;5.076;2023-05-03T03:24:10;102314.94;;;9.39;58.71
60974;BME280;46846;51.528;5.076;2023-05-03T03:26:35;102308.75;;;9.36;58.70
60974;BME280;46846;51.528;5.076;2023-05-03T03:29:01;102310.56;;;9.34;58.79
60974;BME280;46846;51.528;5.076;2023-05-03T03:31:26;102312.34;;;9.30;58.87
60974;BME280;46846;51.528;5.076;2023-05-03T03:33:51;102314.13;;;9.25;58.85
60974;BME280;46846;51.528;5.076;2023-05-03T03:36:16;102308.81;;;9.25;58.89
60974;BME280;46846;51.528;5.076;2023-05-03T03:38:42;102314.16;;;9.22;58.94
60974;BME280;46846;51.528;5.076;2023-05-03T03:41:07;102322.13;;;9.19;59.23
60974;BME280;46846;51.528;5.076;2023-05-03T03:43:33;102314.19;;;9.15;59.20
60974;BME280;46846;51.528;5.076;2023-05-03T03:45:58;102326.59;;;9.13;58.88
60974;BME280;46846;51.528;5.076;2023-05-03T03:48:23;102328.34;;;9.11;58.89
60974;BME280;46846;51.528;5.076;2023-05-03T03:50:48;102334.56;;;9.10;59.11
60974;BME280;46846;51.528;5.076;2023-05-03T03:53:14;102325.72;;;9.08;58.91
60974;BME280;46846;51.528;5.076;2023-05-03T03:55:39;102323.97;;;9.07;58.77
60974;BME280;46846;51.528;5.076;2023-05-03T03:58:05;102329.28;;;9.02;59.08
60974;BME280;46846;51.528;5.076;2023-05-03T04:00:30;102332.81;;;9.01;59.00
60974;BME280;46846;51.528;5.076;2023-05-03T04:02:55;102335.50;;;8.98;58.95
60974;BME280;46846;51.528;5.076;2023-05-03T04:05:20;102331.06;;;8.96;59.05
60974;BME280;46846;51.528;5.076;2023-05-03T04:07:46;102329.31;;;8.95;59.12
60974;BME280;46846;51.528;5.076;2023-05-03T04:10:11;102325.78;;;8.93;59.24
60974;BME280;46846;51.528;5.076;2023-05-03T04:12:36;102330.19;;;8.91;59.32
60974;BME280;46846;51.528;5.076;2023-05-03T04:15:02;102335.53;;;8.87;59.35
60974;BME280;46846;51.528;5.076;2023-05-03T04:17:28;102332.00;;;8.85;58.99
60974;BME280;46846;51.528;5.076;2023-05-03T04:19:53;102332.88;;;8.83;58.96
60974;BME280;46846;51.528;5.076;2023-05-03T04:22:18;102338.22;;;8.80;59.49
60974;BME280;46846;51.528;5.076;2023-05-03T04:24:44;102343.53;;;8.78;59.24
60974;BME280;46846;51.528;5.076;2023-05-03T04:27:10;102346.19;;;8.78;59.35
60974;BME280;46846;51.528;5.076;2023-05-03T04:29:35;102346.16;;;8.75;59.24
60974;BME280;46846;51.528;5.076;2023-05-03T04:32:02;102357.69;;;8.71;59.23
60974;BME280;46846;51.528;5.076;2023-05-03T04:34:28;102359.47;;;8.69;59.45
60974;BME280;46846;51.528;5.076;2023-05-03T04:36:55;102366.53;;;8.67;59.32
60974;BME280;46846;51.528;5.076;2023-05-03T04:39:20;102361.25;;;8.65;59.14
60974;BME280;46846;51.528;5.076;2023-05-03T04:41:47;102378.03;;;8.64;59.16
60974;BME280;46846;51.528;5.076;2023-05-03T04:44:12;102377.16;;;8.64;59.20
60974;BME280;46846;51.528;5.076;2023-05-03T04:46:38;102382.47;;;8.64;59.44
60974;BME280;46846;51.528;5.076;2023-05-03T04:49:04;102380.72;;;8.61;59.44
60974;BME280;46846;51.528;5.076;2023-05-03T04:51:29;102386.00;;;8.59;59.24
60974;BME280;46846;51.528;5.076;2023-05-03T04:53:56;102390.44;;;8.57;59.19
60974;BME280;46846;51.528;5.076;2023-05-03T04:56:22;102385.13;;;8.57;59.58
60974;BME280;46846;51.528;5.076;2023-05-03T04:58:50;102388.66;;;8.59;59.49
60974;BME280;46846;51.528;5.076;2023-05-03T05:01:16;102386.03;;;8.58;59.04
60974;BME280;46846;51.528;5.076;2023-05-03T05:03:41;102388.69;;;8.56;59.20
60974;BME280;46846;51.528;5.076;2023-05-03T05:06:06;102378.06;;;8.56;59.32
60974;BME280;46846;51.528;5.076;2023-05-03T05:08:33;102387.81;;;8.54;59.01
60974;BME280;46846;51.528;5.076;2023-05-03T05:11:00;102387.81;;;8.54;59.33
60974;BME280;46846;51.528;5.076;2023-05-03T05:13:25;102382.47;;;8.56;59.63
60974;BME280;46846;51.528;5.076;2023-05-03T05:15:51;102380.69;;;8.53;59.30
60974;BME280;46846;51.528;5.076;2023-05-03T05:18:16;102382.50;;;8.54;59.49
60974;BME280;46846;51.528;5.076;2023-05-03T05:20:41;102385.13;;;8.59;59.35
60974;BME280;46846;51.528;5.076;2023-05-03T05:23:07;102385.13;;;8.60;59.02
60974;BME280;46846;51.528;5.076;2023-05-03T05:25:32;102383.38;;;8.56;59.17
60974;BME280;46846;51.528;5.076;2023-05-03T05:27:57;102383.34;;;8.64;57.49
60974;BME280;46846;51.528;5.076;2023-05-03T05:30:23;102382.47;;;8.65;58.78
60974;BME280;46846;51.528;5.076;2023-05-03T05:32:48;102387.78;;;8.70;56.96
60974;BME280;46846;51.528;5.076;2023-05-03T05:35:13;102382.47;;;8.67;58.21
60974;BME280;46846;51.528;5.076;2023-05-03T05:37:41;102386.88;;;8.69;57.62
60974;BME280;46846;51.528;5.076;2023-05-03T05:40:07;102395.75;;;8.65;57.78
60974;BME280;46846;51.528;5.076;2023-05-03T05:42:32;102390.41;;;8.67;58.16
60974;BME280;46846;51.528;5.076;2023-05-03T05:44:57;102388.66;;;8.64;58.92
60974;BME280;46846;51.528;5.076;2023-05-03T05:47:23;102394.84;;;8.68;56.04
60974;BME280;46846;51.528;5.076;2023-05-03T05:49:48;102396.59;;;8.70;57.71
60974;BME280;46846;51.528;5.076;2023-05-03T05:52:13;102393.09;;;8.70;57.64
60974;BME280;46846;51.528;5.076;2023-05-03T05:54:39;102387.78;;;8.68;58.89
60974;BME280;46846;51.528;5.076;2023-05-03T05:57:04;102393.97;;;8.69;58.57
60974;BME280;46846;51.528;5.076;2023-05-03T05:59:29;102391.31;;;8.69;58.58
60974;BME280;46846;51.528;5.076;2023-05-03T06:01:55;102387.78;;;8.70;58.76
60974;BME280;46846;51.528;5.076;2023-05-03T06:04:21;102398.38;;;8.73;57.18
60974;BME280;46846;51.528;5.076;2023-05-03T06:06:46;102393.97;;;8.73;58.00
60974;BME280;46846;51.528;5.076;2023-05-03T06:09:11;102388.66;;;8.70;58.14
60974;BME280;46846;51.528;5.076;2023-05-03T06:11:38;102390.41;;;8.74;58.78
60974;BME280;46846;51.528;5.076;2023-05-03T06:14:03;102393.94;;;8.75;58.88
60974;BME280;46846;51.528;5.076;2023-05-03T06:16:33;102398.38;;;8.73;59.52
60974;BME280;46846;51.528;5.076;2023-05-03T06:18:58;102385.13;;;8.76;57.46
60974;BME280;46846;51.528;5.076;2023-05-03T06:21:24;102382.44;;;8.78;59.12
60974;BME280;46846;51.528;5.076;2023-05-03T06:23:50;102381.56;;;8.80;57.79
60974;BME280;46846;51.528;5.076;2023-05-03T06:26:15;102375.34;;;8.81;57.72
60974;BME280;46846;51.528;5.076;2023-05-03T06:28:41;102382.44;;;8.79;54.16
60974;BME280;46846;51.528;5.076;2023-05-03T06:31:07;102378.91;;;8.80;58.52
60974;BME280;46846;51.528;5.076;2023-05-03T06:33:32;102384.22;;;8.80;58.85
60974;BME280;46846;51.528;5.076;2023-05-03T06:35:57;102374.47;;;8.84;58.02
60974;BME280;46846;51.528;5.076;2023-05-03T06:38:23;102374.47;;;8.84;59.49
60974;BME280;46846;51.528;5.076;2023-05-03T06:40:48;102371.81;;;8.85;58.41
60974;BME280;46846;51.528;5.076;2023-05-03T06:43:15;102364.75;;;8.84;58.54
60974;BME280;46846;51.528;5.076;2023-05-03T06:45:41;102368.28;;;8.88;56.56
60974;BME280;46846;51.528;5.076;2023-05-03T06:48:06;102368.25;;;8.89;59.17
60974;BME280;46846;51.528;5.076;2023-05-03T06:50:31;102370.00;;;8.91;57.86
60974;BME280;46846;51.528;5.076;2023-05-03T06:52:57;102368.25;;;8.96;55.86
60974;BME280;46846;51.528;5.076;2023-05-03T06:55:22;102375.28;;;9.01;59.68
60974;BME280;46846;51.528;5.076;2023-05-03T06:57:47;102377.97;;;9.05;59.94
60974;BME280;46846;51.528;5.076;2023-05-03T07:00:13;102381.47;;;9.05;59.11
60974;BME280;46846;51.528;5.076;2023-05-03T07:02:39;102378.84;;;9.07;59.43
60974;BME280;46846;51.528;5.076;2023-05-03T07:05:05;102375.28;;;9.11;58.40
60974;BME280;46846;51.528;5.076;2023-05-03T07:07:31;102369.97;;;9.15;58.90
60974;BME280;46846;51.528;5.076;2023-05-03T07:09:57;102380.56;;;9.22;60.03
60974;BME280;46846;51.528;5.076;2023-05-03T07:12:22;102376.13;;;9.22;56.80
60974;BME280;46846;51.528;5.076;2023-05-03T07:14:51;102374.31;;;9.24;58.25
60974;BME280;46846;51.528;5.076;2023-05-03T07:17:17;102373.41;;;9.32;59.89
60974;BME280;46846;51.528;5.076;2023-05-03T07:19:42;102374.28;;;9.37;60.59
60974;BME280;46846;51.528;5.076;2023-05-03T07:22:07;102369.84;;;9.43;61.19
60974;BME280;46846;51.528;5.076;2023-05-03T07:24:32;102371.56;;;9.46;60.94
60974;BME280;46846;51.528;5.076;2023-05-03T07:26:58;102365.41;;;9.47;55.60
60974;BME280;46846;51.528;5.076;2023-05-03T07:29:23;102364.47;;;9.53;60.83
60974;BME280;46846;51.528;5.076;2023-05-03T07:31:48;102367.97;;;9.58;58.67
60974;BME280;46846;51.528;5.076;2023-05-03T07:34:14;102362.66;;;9.58;56.29
60974;BME280;46846;51.528;5.076;2023-05-03T07:36:39;102360.00;;;9.63;57.66
60974;BME280;46846;51.528;5.076;2023-05-03T07:39:05;102360.78;;;9.76;58.07
60974;BME280;46846;51.528;5.076;2023-05-03T07:41:30;102350.13;;;9.82;60.93
60974;BME280;46846;51.528;5.076;2023-05-03T07:43:55;102349.19;;;9.89;61.08
60974;BME280;46846;51.528;5.076;2023-05-03T07:46:21;102342.06;;;9.91;60.98
60974;BME280;46846;51.528;5.076;2023-05-03T07:48:47;102349.97;;;9.99;61.33
60974;BME280;46846;51.528;5.076;2023-05-03T07:51:12;102345.50;;;10.07;58.04
60974;BME280;46846;51.528;5.076;2023-05-03T07:53:37;102329.50;;;10.10;60.55
60974;BME280;46846;51.528;5.076;2023-05-03T07:56:04;102333.88;;;10.19;60.91
60974;BME280;46846;51.528;5.076;2023-05-03T07:58:30;102328.53;;;10.21;60.45
60974;BME280;46846;51.528;5.076;2023-05-03T08:00:55;102318.69;;;10.29;60.95
60974;BME280;46846;51.528;5.076;2023-05-03T08:03:20;102306.28;;;10.30;55.15
60974;BME280;46846;51.528;5.076;2023-05-03T08:05:46;102309.66;;;10.50;60.74
60974;BME280;46846;51.528;5.076;2023-05-03T08:08:11;102312.28;;;10.53;55.07
60974;BME280;46846;51.528;5.076;2023-05-03T08:10:38;102309.56;;;10.60;60.09
60974;BME280;46846;51.528;5.076;2023-05-03T08:13:03;102314.91;;;10.58;58.87
60974;BME280;46846;51.528;5.076;2023-05-03T08:15:30;102306.84;;;10.68;54.14
60974;BME280;46846;51.528;5.076;2023-05-03T08:17:55;102297.03;;;10.70;58.05
60974;BME280;46846;51.528;5.076;2023-05-03T08:20:21;102296.91;;;10.79;58.52
60974;BME280;46846;51.528;5.076;2023-05-03T08:22:47;102295.03;;;10.90;58.57
60974;BME280;46846;51.528;5.076;2023-05-03T08:25:12;102300.19;;;11.03;56.15
60974;BME280;46846;51.528;5.076;2023-05-03T08:27:37;102291.22;;;11.10;58.98
60974;BME280;46846;51.528;5.076;2023-05-03T08:30:04;102296.44;;;11.19;58.46
60974;BME280;46846;51.528;5.076;2023-05-03T08:32:29;102303.31;;;11.34;59.71
60974;BME280;46846;51.528;5.076;2023-05-03T08:34:55;102307.72;;;11.37;59.11
60974;BME280;46846;51.528;5.076;2023-05-03T08:37:21;102320.00;;;11.49;59.63
60974;BME280;46846;51.528;5.076;2023-05-03T08:39:46;102319.00;;;11.55;59.65
60974;BME280;46846;51.528;5.076;2023-05-03T08:42:12;102314.53;;;11.58;59.80
60974;BME280;46846;51.528;5.076;2023-05-03T08:44:40;102319.75;;;11.66;59.81
60974;BME280;46846;51.528;5.076;2023-05-03T08:47:08;102322.28;;;11.74;58.39
60974;BME280;46846;51.528;5.076;2023-05-03T08:49:34;102314.19;;;11.82;59.08
60974;BME280;46846;51.528;5.076;2023-05-03T08:52:00;102314.03;;;11.89;58.71
60974;BME280;46846;51.528;5.076;2023-05-03T08:54:26;102312.25;;;11.90;58.41
60974;BME280;46846;51.528;5.076;2023-05-03T08:56:51;102309.38;;;12.04;56.77
60974;BME280;46846;51.528;5.076;2023-05-03T08:59:17;102310.19;;;12.11;54.87
60974;BME280;46846;51.528;5.076;2023-05-03T09:01:42;102316.16;;;12.25;57.85
60974;BME280;46846;51.528;5.076;2023-05-03T09:04:08;102300.97;;;12.29;57.02
60974;BME280;46846;51.528;5.076;2023-05-03T09:06:34;102310.50;;;12.42;53.96
60974;BME280;46846;51.528;5.076;2023-05-03T09:09:00;102304.38;;;12.39;47.03
60974;BME280;46846;51.528;5.076;2023-05-03T09:11:26;102304.94;;;12.53;51.02
60974;BME280;46846;51.528;5.076;2023-05-03T09:13:53;102304.88;;;12.58;57.37
60974;BME280;46846;51.528;5.076;2023-05-03T09:16:23;102303.66;;;12.75;57.97
60974;BME280;46846;51.528;5.076;2023-05-03T09:18:55;102313.22;;;12.87;58.33
60974;BME280;46846;51.528;5.076;2023-05-03T09:21:20;102322.91;;;12.92;58.33
60974;BME280;46846;51.528;5.076;2023-05-03T09:23:45;102318.34;;;12.97;58.59
60974;BME280;46846;51.528;5.076;2023-05-03T09:26:11;102316.47;;;13.03;57.48
60974;BME280;46846;51.528;5.076;2023-05-03T09:28:51;102302.22;;;13.02;56.20
60974;BME280;46846;51.528;5.076;2023-05-03T09:31:16;102303.03;;;13.06;54.62
60974;BME280;46846;51.528;5.076;2023-05-03T09:33:42;102298.31;;;13.17;56.38
60974;BME280;46846;51.528;5.076;2023-05-03T09:36:07;102299.91;;;13.26;55.89
60974;BME280;46846;51.528;5.076;2023-05-03T09:38:33;102300.50;;;13.39;57.38
60974;BME280;46846;51.528;5.076;2023-05-03T09:41:00;102302.13;;;13.48;57.44
60974;BME280;46846;51.528;5.076;2023-05-03T09:43:25;102287.84;;;13.49;57.76
60974;BME280;46846;51.528;5.076;2023-05-03T09:45:51;102301.00;;;13.58;57.87
60974;BME280;46846;51.528;5.076;2023-05-03T09:48:16;102297.47;;;13.58;57.20
60974;BME280;46846;51.528;5.076;2023-05-03T09:50:42;102298.16;;;13.66;52.11
60974;BME280;46846;51.528;5.076;2023-05-03T09:53:08;102288.97;;;13.76;57.62
60974;BME280;46846;51.528;5.076;2023-05-03T09:55:37;102291.44;;;13.86;58.17
60974;BME280;46846;51.528;5.076;2023-05-03T09:58:03;102293.13;;;13.88;57.90
60974;BME280;46846;51.528;5.076;2023-05-03T10:00:39;102294.13;;;13.86;54.86
60974;BME280;46846;51.528;5.076;2023-05-03T10:03:08;102294.84;;;13.92;56.79
60974;BME280;46846;51.528;5.076;2023-05-03T10:05:55;102295.38;;;14.05;57.27
60974;BME280;46846;51.528;5.076;2023-05-03T10:10:51;102294.13;;;14.20;55.86
60974;BME280;46846;51.528;5.076;2023-05-03T10:13:19;102295.72;;;14.28;57.91
60974;BME280;46846;51.528;5.076;2023-05-03T10:15:45;102295.91;;;14.20;52.70
60974;BME280;46846;51.528;5.076;2023-05-03T10:18:11;102299.09;;;14.34;56.03
60974;BME280;46846;51.528;5.076;2023-05-03T10:20:40;102289.97;;;14.42;54.98
60974;BME280;46846;51.528;5.076;2023-05-03T10:23:07;102285.66;;;14.38;56.52
60974;BME280;46846;51.528;5.076;2023-05-03T10:25:36;102288.25;;;14.39;51.34
60974;BME280;46846;51.528;5.076;2023-05-03T10:28:02;102279.25;;;14.43;47.04
60974;BME280;46846;51.528;5.076;2023-05-03T10:30:28;102283.63;;;14.46;54.63
60974;BME280;46846;51.528;5.076;2023-05-03T10:32:56;102287.69;;;14.59;55.64
60974;BME280;46846;51.528;5.076;2023-05-03T10:35:24;102281.31;;;14.65;55.62
60974;BME280;46846;51.528;5.076;2023-05-03T10:37:50;102277.72;;;14.66;54.84
60974;BME280;46846;51.528;5.076;2023-05-03T10:40:16;102281.03;;;14.76;56.31
60974;BME280;46846;51.528;5.076;2023-05-03T10:42:48;102276.66;;;14.72;53.90
60974;BME280;46846;51.528;5.076;2023-05-03T10:45:21;102274.31;;;14.59;43.93
60974;BME280;46846;51.528;5.076;2023-05-03T10:50:31;102269.09;;;14.88;53.88
60974;BME280;46846;51.528;5.076;2023-05-03T10:52:56;102269.81;;;14.93;54.91
60974;BME280;46846;51.528;5.076;2023-05-03T10:55:22;102266.25;;;14.93;51.75
60974;BME280;46846;51.528;5.076;2023-05-03T10:57:48;102263.63;;;14.91;46.62
60974;BME280;46846;51.528;5.076;2023-05-03T11:05:11;102258.50;;;15.13;55.95
60974;BME280;46846;51.528;5.076;2023-05-03T11:07:37;102254.88;;;15.14;55.45
60974;BME280;46846;51.528;5.076;2023-05-03T11:10:18;102251.22;;;15.17;56.49
60974;BME280;46846;51.528;5.076;2023-05-03T11:12:43;102254.28;;;15.04;48.24
60974;BME280;46846;51.528;5.076;2023-05-03T11:15:09;102248.56;;;15.17;53.96
60974;BME280;46846;51.528;5.076;2023-05-03T11:17:36;102240.41;;;15.20;54.91
60974;BME280;46846;51.528;5.076;2023-05-03T11:20:02;102244.06;;;15.17;40.96
60974;BME280;46846;51.528;5.076;2023-05-03T11:22:28;102240.69;;;15.11;49.94
60974;BME280;46846;51.528;5.076;2023-05-03T11:24:53;102240.41;;;15.20;40.75
60974;BME280;46846;51.528;5.076;2023-05-03T11:27:23;102239.16;;;15.30;51.56
60974;BME280;46846;51.528;5.076;2023-05-03T11:29:48;102234.69;;;15.31;53.45
60974;BME280;46846;51.528;5.076;2023-05-03T11:32:15;102234.75;;;15.29;53.21
60974;BME280;46846;51.528;5.076;2023-05-03T11:34:40;102230.25;;;15.30;49.20
60974;BME280;46846;51.528;5.076;2023-05-03T11:37:07;102226.66;;;15.31;51.88
60974;BME280;46846;51.528;5.076;2023-05-03T11:39:32;102224.72;;;15.36;49.30
60974;BME280;46846;51.528;5.076;2023-05-03T11:42:01;102214.69;;;15.41;51.97
60974;BME280;46846;51.528;5.076;2023-05-03T11:44:27;102218.38;;;15.39;51.41
60974;BME280;46846;51.528;5.076;2023-05-03T11:46:52;102214.44;;;15.49;52.05
60974;BME280;46846;51.528;5.076;2023-05-03T11:49:18;102212.66;;;15.50;50.78
60974;BME280;46846;51.528;5.076;2023-05-03T11:51:43;102209.13;;;15.48;53.15
60974;BME280;46846;51.528;5.076;2023-05-03T11:54:10;102206.34;;;15.51;52.49
60974;BME280;46846;51.528;5.076;2023-05-03T11:56:35;102198.09;;;15.57;53.35
60974;BME280;46846;51.528;5.076;2023-05-03T11:59:01;102193.75;;;15.53;46.17
60974;BME280;46846;51.528;5.076;2023-05-03T12:01:27;102193.75;;;15.53;47.23
60974;BME280;46846;51.528;5.076;2023-05-03T12:03:57;102194.56;;;15.55;50.15
60974;BME280;46846;51.528;5.076;2023-05-03T12:06:22;102181.78;;;15.63;51.93
60974;BME280;46846;51.528;5.076;2023-05-03T12:08:48;102178.06;;;15.67;52.24
60974;BME280;46846;51.528;5.076;2023-05-03T12:11:13;102176.19;;;15.69;53.77
60974;BME280;46846;51.528;5.076;2023-05-03T12:13:39;102168.31;;;15.65;52.34
60974;BME280;46846;51.528;5.076;2023-05-03T12:16:05;102171.94;;;15.64;53.58
60974;BME280;46846;51.528;5.076;2023-05-03T12:18:46;102174.56;;;15.65;52.66
60974;BME280;46846;51.528;5.076;2023-05-03T12:21:14;102171.66;;;15.71;50.10
60974;BME280;46846;51.528;5.076;2023-05-03T12:23:39;102161.84;;;15.70;52.18
60974;BME280;46846;51.528;5.076;2023-05-03T12:26:05;102156.28;;;15.77;51.61
60974;BME280;46846;51.528;5.076;2023-05-03T12:28:30;102155.34;;;15.78;50.77
60974;BME280;46846;51.528;5.076;2023-05-03T12:30:56;102146.31;;;15.80;45.77
60974;BME280;46846;51.528;5.076;2023-05-03T12:33:21;102141.41;;;15.93;49.56
60974;BME280;46846;51.528;5.076;2023-05-03T12:35:46;102145.06;;;15.91;41.69
60974;BME280;46846;51.528;5.076;2023-05-03T12:38:12;102135.13;;;15.94;39.49
60974;BME280;46846;51.528;5.076;2023-05-03T12:40:37;102135.59;;;16.06;50.46
60974;BME280;46846;51.528;5.076;2023-05-03T12:43:03;102130.97;;;16.09;51.64
60974;BME280;46846;51.528;5.076;2023-05-03T12:45:28;102131.03;;;16.08;50.36
60974;BME280;46846;51.528;5.076;2023-05-03T12:47:55;102121.13;;;16.10;49.85
60974;BME280;46846;51.528;5.076;2023-05-03T12:50:21;102128.06;;;16.16;45.41
60974;BME280;46846;51.528;5.076;2023-05-03T12:52:46;102121.34;;;16.27;50.05
60974;BME280;46846;51.528;5.076;2023-05-03T12:55:11;102131.03;;;16.32;49.93
60974;BME280;46846;51.528;5.076;2023-05-03T12:57:37;102128.44;;;16.30;51.26
60974;BME280;46846;51.528;5.076;2023-05-03T13:00:02;102129.28;;;16.31;47.92
60974;BME280;46846;51.528;5.076;2023-05-03T13:02:28;102126.28;;;16.40;47.19
60974;BME280;46846;51.528;5.076;2023-05-03T13:04:53;102121.56;;;16.45;49.88
60974;BME280;46846;51.528;5.076;2023-05-03T13:07:22;102115.41;;;16.43;53.05